createdAt,value
2022-11-14T00:01:35.709Z,52.00
2022-11-14T00:04:28.254Z,55.80
2022-11-14T00:07:16.810Z,51.17
2022-11-14T00:10:04.719Z,54.10
2022-11-14T00:12:51.794Z,57.08
2022-11-14T00:15:39.223Z,57.10
2022-11-14T00:18:26.727Z,52.65
2022-11-14T00:21:14.132Z,61.28
2022-11-14T00:24:03.566Z,51.90
2022-11-14T00:26:53.616Z,50.28
2022-11-14T00:29:41.910Z,54.55
2022-11-14T00:32:31.094Z,49.05
2022-11-14T00:35:20.771Z,45.75
2022-11-14T00:38:07.829Z,47.15
2022-11-14T00:40:55.412Z,53.92
2022-11-14T00:43:44.119Z,51.25
2022-11-14T00:46:31.272Z,50.63
2022-11-14T00:49:18.386Z,54.92
2022-11-14T00:52:06.194Z,56.03
2022-11-14T00:54:55.531Z,59.83
2022-11-14T00:57:42.651Z,61.55
2022-11-14T01:00:29.927Z,58.30
2022-11-14T01:03:17.420Z,67.95
2022-11-14T01:06:07.594Z,67.93
2022-11-14T01:08:54.739Z,59.78
2022-11-14T01:11:41.882Z,64.45
2022-11-14T01:14:28.969Z,73.55
2022-11-14T01:17:16.554Z,63.13
2022-11-14T01:20:04.620Z,71.15
2022-11-14T01:22:51.794Z,77.45
2022-11-14T01:25:40.413Z,74.13
2022-11-14T01:28:27.902Z,73.45
2022-11-14T01:31:21.380Z,90.45
2022-11-14T01:34:09.159Z,86.95
2022-11-14T01:36:56.336Z,85.13
2022-11-14T01:39:45.925Z,78.68
2022-11-14T01:42:32.984Z,117.70
2022-11-14T01:45:53.539Z,110.20
2022-11-14T01:49:03.553Z,89.93
2022-11-14T01:52:08.320Z,86.45
2022-11-14T01:55:02.218Z,85.57
2022-11-14T01:57:50.043Z,91.43
2022-11-14T02:00:37.656Z,99.03
2022-11-14T02:03:26.981Z,92.70
2022-11-14T02:06:16.796Z,92.72
2022-11-14T02:09:07.249Z,100.45
2022-11-14T02:11:56.404Z,100.32
2022-11-14T02:14:47.920Z,102.05
2022-11-14T02:17:35.448Z,101.63
2022-11-14T02:20:28.663Z,102.13
2022-11-14T02:23:27.288Z,98.18
2022-11-14T02:26:17.913Z,97.50
2022-11-14T02:29:07.404Z,101.82
2022-11-14T02:31:54.629Z,171.73
2022-11-14T02:34:44.198Z,167.90
2022-11-14T02:37:31.277Z,574.80
2022-11-14T02:40:18.509Z,161.25
2022-11-14T02:43:06.016Z,116.65
2022-11-14T02:45:53.284Z,84.88
2022-11-14T02:48:40.508Z,102.88
2022-11-14T02:51:27.806Z,114.95
2022-11-14T02:54:14.896Z,105.68
2022-11-14T02:57:06.453Z,122.32
2022-11-14T02:59:53.545Z,136.75
2022-11-14T03:02:40.634Z,488.25
2022-11-14T03:05:27.994Z,210.60
2022-11-14T03:08:18.430Z,333.42
2022-11-14T03:11:09.932Z,419.30
2022-11-14T03:13:59.680Z,778.25
2022-11-14T03:16:47.084Z,181.32
2022-11-14T03:19:34.219Z,159.85
2022-11-14T03:22:21.256Z,205.27
2022-11-14T03:25:08.845Z,155.13
2022-11-14T03:27:56.976Z,213.40
2022-11-14T03:30:44.048Z,264.88
2022-11-14T03:33:31.648Z,374.17
2022-11-14T03:36:19.509Z,409.63
2022-11-14T03:39:07.287Z,175.35
2022-11-14T03:41:54.422Z,147.18
2022-11-14T03:44:43.773Z,214.50
2022-11-14T03:47:31.270Z,150.05
2022-11-14T03:50:18.340Z,196.10
2022-11-14T03:53:06.197Z,335.27
2022-11-14T03:55:53.287Z,125.15
2022-11-14T03:58:40.410Z,141.52
2022-11-14T04:01:30.237Z,354.58
2022-11-14T04:04:17.517Z,296.50
2022-11-14T04:07:07.197Z,131.20
2022-11-14T04:09:56.729Z,347.08
2022-11-14T04:12:51.730Z,139.38
2022-11-14T04:15:38.890Z,138.05
2022-11-14T04:18:27.080Z,292.08
2022-11-14T04:21:14.506Z,332.65
2022-11-14T04:24:04.873Z,427.05
2022-11-14T04:26:55.601Z,109.15
2022-11-14T04:29:42.949Z,480.02
2022-11-14T04:32:30.265Z,164.65
2022-11-14T04:35:19.641Z,273.98
2022-11-14T04:38:06.971Z,240.57
2022-11-14T04:40:57.011Z,235.43
2022-11-14T04:43:50.600Z,260.23
2022-11-14T04:46:38.124Z,286.50
2022-11-14T04:49:25.563Z,151.15
2022-11-14T04:52:12.697Z,111.60
2022-11-14T04:55:00.175Z,200.13
2022-11-14T04:57:47.297Z,311.95
2022-11-14T05:00:36.678Z,132.25
2022-11-14T05:03:24.871Z,127.78
2022-11-14T05:06:12.183Z,105.47
2022-11-14T05:09:01.763Z,118.32
2022-11-14T05:11:51.136Z,102.15
2022-11-14T05:14:40.507Z,89.85
2022-11-14T05:17:29.572Z,98.60
2022-11-14T05:20:19.988Z,103.25
2022-11-14T05:23:07.394Z,70.43
2022-11-14T05:26:12.870Z,76.53
2022-11-14T05:29:00.313Z,74.45
2022-11-14T05:31:47.447Z,78.95
2022-11-14T05:34:36.849Z,101.28
2022-11-14T05:37:23.963Z,95.18
2022-11-14T05:40:11.758Z,80.38
2022-11-14T05:42:59.172Z,85.00
2022-11-14T05:45:46.304Z,126.50
2022-11-14T05:48:35.583Z,97.72
2022-11-14T05:51:25.185Z,89.15
2022-11-14T05:54:12.285Z,81.18
2022-11-14T05:57:01.556Z,81.72
2022-11-14T05:59:48.708Z,88.97
2022-11-14T06:02:35.868Z,88.18
2022-11-14T06:05:25.829Z,95.13
2022-11-14T06:08:13.759Z,93.85
2022-11-14T06:11:13.331Z,110.07
2022-11-14T06:14:00.449Z,90.15
2022-11-14T06:16:50.142Z,77.68
2022-11-14T06:19:40.292Z,84.65
2022-11-14T06:22:27.388Z,77.88
2022-11-14T06:25:14.651Z,81.35
2022-11-14T06:28:01.875Z,71.78
2022-11-14T06:30:49.049Z,88.40
2022-11-14T06:33:39.045Z,79.65
2022-11-14T06:36:26.557Z,86.18
2022-11-14T06:39:13.664Z,81.78
2022-11-14T06:42:00.696Z,84.38
2022-11-14T06:44:47.841Z,84.05
2022-11-14T06:47:34.919Z,81.10
2022-11-14T06:50:22.028Z,83.90
2022-11-14T06:53:09.117Z,91.85
2022-11-14T06:55:58.972Z,84.50
2022-11-14T06:58:51.180Z,84.78
2022-11-14T07:01:38.381Z,83.85
2022-11-14T07:04:25.495Z,86.43
2022-11-14T07:07:12.605Z,84.25
2022-11-14T07:09:59.890Z,78.82
2022-11-14T07:12:50.078Z,84.57
2022-11-14T07:15:39.443Z,80.90
2022-11-14T07:18:27.161Z,77.50
2022-11-14T07:21:19.253Z,73.00
2022-11-14T07:24:06.700Z,58.47
2022-11-14T07:26:55.978Z,68.30
2022-11-14T07:29:45.222Z,68.32
2022-11-14T07:34:29.235Z,66.82
2022-11-14T07:36:26.439Z,68.60
2022-11-14T07:39:22.655Z,57.85
2022-11-14T07:42:55.048Z,62.97
2022-11-14T07:50:06.969Z,46.28
2022-11-14T07:52:57.636Z,40.08
2022-11-14T07:55:45.042Z,34.70
2022-11-14T07:58:35.175Z,24.42
2022-11-14T08:01:25.006Z,14.38
2022-11-14T08:04:15.021Z,13.07
2022-11-14T08:07:02.266Z,11.88
2022-11-14T08:09:50.526Z,13.02
2022-11-14T08:12:41.362Z,11.63
2022-11-14T08:15:32.401Z,8.55
2022-11-14T08:18:19.913Z,6.88
2022-11-14T08:21:07.278Z,6.35
2022-11-14T08:23:54.628Z,4.60
2022-11-14T08:26:42.874Z,6.82
2022-11-14T08:29:34.683Z,10.63
2022-11-14T08:32:32.033Z,3.73
2022-11-14T08:35:31.352Z,3.42
2022-11-14T08:38:19.252Z,2.90
2022-11-14T08:41:06.770Z,3.60
2022-11-14T08:43:54.234Z,5.22
2022-11-14T08:46:41.670Z,3.47
2022-11-14T08:49:31.659Z,5.72
2022-11-14T08:52:18.844Z,3.53
2022-11-14T08:55:06.414Z,3.40
2022-11-14T08:57:54.008Z,3.75
2022-11-14T09:00:43.531Z,3.42
2022-11-14T09:03:35.433Z,5.68
2022-11-14T09:06:22.768Z,9.35
2022-11-14T09:09:10.141Z,7.65
2022-11-14T09:11:58.991Z,5.55
2022-11-14T09:14:48.305Z,5.32
2022-11-14T09:17:35.538Z,5.93
2022-11-14T09:20:29.794Z,4.93
2022-11-14T09:23:19.882Z,5.30
2022-11-14T09:26:10.420Z,6.30
2022-11-14T09:28:57.752Z,6.32
2022-11-14T09:31:45.958Z,5.45
2022-11-14T09:34:33.590Z,7.47
2022-11-14T09:37:25.557Z,5.00
2022-11-14T09:40:14.618Z,4.97
2022-11-14T09:43:32.955Z,5.53
2022-11-14T09:46:24.538Z,5.25
2022-11-14T09:49:24.921Z,5.40
2022-11-14T09:52:20.767Z,5.90
2022-11-14T09:55:21.367Z,4.68
2022-11-14T09:58:15.510Z,3.78
2022-11-14T10:01:09.775Z,3.80
2022-11-14T10:04:19.953Z,3.88
2022-11-14T10:07:38.083Z,3.70
2022-11-14T10:10:44.244Z,3.28
2022-11-14T10:14:05.133Z,3.30
2022-11-14T10:17:18.899Z,8.75
2022-11-14T10:20:18.545Z,2.85
2022-11-14T10:23:34.275Z,3.05
2022-11-14T10:26:32.503Z,3.33
2022-11-14T10:29:19.801Z,2.78
2022-11-14T10:32:41.909Z,2.22
2022-11-14T10:35:50.838Z,3.15
2022-11-14T10:39:03.392Z,2.20
2022-11-14T10:41:58.942Z,3.45
2022-11-14T10:44:59.939Z,3.25
2022-11-14T10:47:58.567Z,2.03
2022-11-14T10:51:00.061Z,2.63
2022-11-14T10:53:58.429Z,2.45
2022-11-14T10:56:51.222Z,1.92
2022-11-14T11:02:26.333Z,2.00
2022-11-14T11:05:19.308Z,1.95
2022-11-14T11:08:43.259Z,3.80
2022-11-14T11:11:31.885Z,1.65
2022-11-14T11:14:19.830Z,1.65
2022-11-14T11:17:13.017Z,1.65
2022-11-14T11:20:41.025Z,2.13
2022-11-14T11:23:28.543Z,2.67
2022-11-14T11:26:24.667Z,1.80
2022-11-14T11:29:11.724Z,2.92
2022-11-14T11:32:03.348Z,6.03
2022-11-14T11:34:54.091Z,5.55
2022-11-14T11:37:55.208Z,2.08
2022-11-14T11:40:48.462Z,2.35
2022-11-14T11:44:00.854Z,1.90
2022-11-14T11:47:01.185Z,2.38
2022-11-14T11:49:54.614Z,2.17
2022-11-14T11:52:54.559Z,2.97
2022-11-14T11:55:47.353Z,2.10
2022-11-14T12:01:31.404Z,10.80
2022-11-14T12:04:20.986Z,4.70
2022-11-14T12:07:24.938Z,4.38
2022-11-14T12:10:20.296Z,3.17
2022-11-14T12:13:32.591Z,2.40
2022-11-14T12:16:33.118Z,3.70
2022-11-14T12:19:46.812Z,3.00
2022-11-14T12:23:08.888Z,3.30
2022-11-14T12:26:01.427Z,3.45
2022-11-14T12:29:21.248Z,1.95
2022-11-14T12:32:24.700Z,2.28
2022-11-14T12:35:32.817Z,1.73
2022-11-14T12:38:21.767Z,2.53
2022-11-14T12:41:10.163Z,3.63
2022-11-14T12:44:32.763Z,2.03
2022-11-14T12:47:22.474Z,2.20
2022-11-14T12:50:43.200Z,1.85
2022-11-14T12:53:36.348Z,2.50
2022-11-14T12:56:26.265Z,1.58
2022-11-14T12:59:35.046Z,4.38
2022-11-14T13:02:46.400Z,2.53
2022-11-14T13:06:38.101Z,4.68
2022-11-14T13:09:40.161Z,2.35
2022-11-14T13:12:59.482Z,3.10
2022-11-14T13:16:14.379Z,2.75
2022-11-14T13:19:33.397Z,3.78
2022-11-14T13:22:39.877Z,7.43
2022-11-14T13:25:27.492Z,2.63
2022-11-14T13:28:49.020Z,2.85
2022-11-14T13:31:43.934Z,6.00
2022-11-14T13:34:43.057Z,3.42
2022-11-14T13:37:41.706Z,4.30
2022-11-14T13:40:41.730Z,2.85
2022-11-14T13:43:55.737Z,4.00
2022-11-14T13:47:09.680Z,3.03
2022-11-14T13:50:09.233Z,2.60
2022-11-14T13:52:57.154Z,5.63
2022-11-14T13:55:54.274Z,2.80
2022-11-14T13:59:22.675Z,3.25
2022-11-14T14:02:15.025Z,3.72
2022-11-14T14:05:04.352Z,4.63
2022-11-14T14:08:29.401Z,5.78
2022-11-14T14:11:55.791Z,3.63
2022-11-14T14:14:59.944Z,16.77
2022-11-14T14:18:15.202Z,5.97
2022-11-14T14:21:10.476Z,5.18
2022-11-14T14:24:30.639Z,3.15
2022-11-14T14:27:26.092Z,5.05
2022-11-14T14:30:20.769Z,4.55
2022-11-14T14:33:19.268Z,6.00
2022-11-14T14:36:26.712Z,14.57
2022-11-14T14:39:25.268Z,4.53
2022-11-14T14:42:18.440Z,4.18
2022-11-14T14:45:15.930Z,7.63
2022-11-14T14:48:04.425Z,6.65
2022-11-14T14:50:58.995Z,7.45
2022-11-14T14:53:54.129Z,8.73
2022-11-14T14:57:00.459Z,7.43
2022-11-14T14:59:58.450Z,8.65
2022-11-14T15:02:50.181Z,6.10
2022-11-14T15:05:39.184Z,6.97
2022-11-14T15:11:32.875Z,9.57
2022-11-14T15:14:24.056Z,6.93
2022-11-14T15:17:18.379Z,14.98
2022-11-14T15:20:26.687Z,9.30
2022-11-14T15:23:14.081Z,6.32
2022-11-14T15:26:15.722Z,5.35
2022-11-14T15:29:25.325Z,7.57
2022-11-14T15:32:19.819Z,4.25
2022-11-14T15:35:25.688Z,5.82
2022-11-14T15:41:24.800Z,8.52
2022-11-14T15:44:33.021Z,5.57
2022-11-14T15:47:25.999Z,5.28
2022-11-14T15:53:08.128Z,5.63
2022-11-14T15:55:55.577Z,4.97
2022-11-14T15:58:46.687Z,9.75
2022-11-14T16:01:36.992Z,9.20
2022-11-14T16:04:32.083Z,6.00
2022-11-14T16:07:22.590Z,8.05
2022-11-14T16:10:21.319Z,8.60
2022-11-14T16:13:08.717Z,13.35
2022-11-14T16:15:58.484Z,6.97
2022-11-14T16:18:48.522Z,6.88
2022-11-14T16:21:37.598Z,6.85
2022-11-14T16:24:26.704Z,6.90
2022-11-14T16:27:17.572Z,5.50
2022-11-14T16:30:05.783Z,6.30
2022-11-14T16:32:56.789Z,7.25
2022-11-14T16:35:44.220Z,6.38
2022-11-14T16:38:31.517Z,19.50
2022-11-14T16:41:19.727Z,10.52
2022-11-14T16:44:14.872Z,8.15
2022-11-14T16:47:02.313Z,11.32
2022-11-14T16:49:49.579Z,7.07
2022-11-14T16:52:41.748Z,8.52
2022-11-14T16:55:29.163Z,9.45
2022-11-14T16:58:18.826Z,10.25
2022-11-14T17:01:11.611Z,5.82
2022-11-14T17:04:01.390Z,7.72
2022-11-14T17:06:49.218Z,6.10
2022-11-14T17:09:36.887Z,8.07
2022-11-14T17:12:26.529Z,7.63
2022-11-14T17:15:13.785Z,9.32
2022-11-14T17:18:01.055Z,6.97
2022-11-14T17:20:48.297Z,9.48
2022-11-14T17:23:36.010Z,18.63
2022-11-14T17:26:26.090Z,10.07
2022-11-14T17:29:13.356Z,9.43
2022-11-14T17:32:01.258Z,8.02
2022-11-14T17:34:48.613Z,10.23
2022-11-14T17:37:36.109Z,9.10
2022-11-14T17:40:25.667Z,9.63
2022-11-14T17:43:17.261Z,10.02
2022-11-14T17:46:12.565Z,10.77
2022-11-14T17:49:01.708Z,12.15
2022-11-14T17:51:51.231Z,12.63
2022-11-14T17:54:38.677Z,9.05
2022-11-14T17:57:32.693Z,11.38
2022-11-14T18:00:24.691Z,11.45
2022-11-14T18:03:24.328Z,12.40
2022-11-14T18:06:39.445Z,9.98
2022-11-14T18:09:30.494Z,12.13
2022-11-14T18:12:20.687Z,8.32
2022-11-14T18:15:09.185Z,9.95
2022-11-14T18:17:56.848Z,6.07
2022-11-14T18:20:44.304Z,6.18
2022-11-14T18:23:31.868Z,8.93
2022-11-14T18:26:22.005Z,11.00
2022-11-14T18:29:35.343Z,10.18
2022-11-14T18:32:25.458Z,10.07
2022-11-14T18:35:12.995Z,8.32
2022-11-14T18:38:00.205Z,9.30
2022-11-14T18:40:47.419Z,7.72
2022-11-14T18:43:35.050Z,5.15
2022-11-14T18:46:24.884Z,9.13
2022-11-14T18:49:12.172Z,8.75
2022-11-14T18:52:05.549Z,5.75
2022-11-14T18:54:59.497Z,8.38
2022-11-14T18:57:52.764Z,8.63
2022-11-14T19:00:40.146Z,7.47
2022-11-14T19:03:29.311Z,8.20
2022-11-14T19:06:17.401Z,8.07
2022-11-14T19:09:10.851Z,8.07
2022-11-14T19:12:19.490Z,6.95
2022-11-14T19:15:08.516Z,9.15
2022-11-14T19:18:07.572Z,7.07
2022-11-14T19:21:02.410Z,10.27
2022-11-14T19:24:05.186Z,8.15
2022-11-14T19:26:59.628Z,6.25
2022-11-14T19:29:51.904Z,5.40
2022-11-14T19:32:39.766Z,7.60
2022-11-14T19:35:26.939Z,7.82
2022-11-14T19:38:20.119Z,11.05
2022-11-14T19:41:15.063Z,6.25
2022-11-14T19:44:03.717Z,6.65
2022-11-14T19:46:54.379Z,7.97
2022-11-14T19:49:43.028Z,6.50
2022-11-14T19:52:32.979Z,9.90
2022-11-14T19:55:24.294Z,4.93
2022-11-14T19:58:11.939Z,7.50
2022-11-14T20:01:12.605Z,4.55
2022-11-14T20:04:02.685Z,8.05
2022-11-14T20:06:50.813Z,5.50
2022-11-14T20:09:41.191Z,6.40
2022-11-14T20:12:28.925Z,6.65
2022-11-14T20:15:16.621Z,9.68
2022-11-14T20:18:07.130Z,6.68
2022-11-14T20:20:58.008Z,8.43
2022-11-14T20:23:46.258Z,11.70
2022-11-14T20:26:33.841Z,11.93
2022-11-14T20:29:21.315Z,9.93
2022-11-14T20:32:13.027Z,8.98
2022-11-14T20:35:03.071Z,10.95
2022-11-14T20:37:50.572Z,13.77
2022-11-14T20:40:40.947Z,7.75
2022-11-14T20:43:29.624Z,12.18
2022-11-14T20:46:22.183Z,9.23
2022-11-14T20:49:11.830Z,19.27
2022-11-14T20:51:59.500Z,13.05
2022-11-14T20:54:49.970Z,11.98
2022-11-14T20:57:37.591Z,16.60
2022-11-14T21:00:25.082Z,18.15
2022-11-14T21:03:14.456Z,6.60
2022-11-14T21:06:02.166Z,7.10
2022-11-14T21:08:49.437Z,10.95
2022-11-14T21:11:36.763Z,13.45
2022-11-14T21:14:24.222Z,10.13
2022-11-14T21:17:12.240Z,9.93
2022-11-14T21:19:59.709Z,14.15
2022-11-14T21:22:47.326Z,10.23
2022-11-14T21:25:35.829Z,7.72
2022-11-14T21:28:23.127Z,13.73
2022-11-14T21:31:24.232Z,8.10
2022-11-14T21:34:13.908Z,7.15
2022-11-14T21:37:01.812Z,6.60
2022-11-14T21:39:54.764Z,6.57
2022-11-14T21:42:42.176Z,6.53
2022-11-14T21:45:31.996Z,10.13
2022-11-14T21:48:19.325Z,10.85
2022-11-14T21:51:13.540Z,9.45
2022-11-14T21:54:06.599Z,13.43
2022-11-14T21:56:54.059Z,11.55
2022-11-14T21:59:41.406Z,11.90
2022-11-14T22:02:47.068Z,11.02
2022-11-14T22:05:37.402Z,9.02
2022-11-14T22:08:24.791Z,12.40
2022-11-14T22:11:12.139Z,12.07
2022-11-14T22:13:59.454Z,6.18
2022-11-14T22:16:46.734Z,5.55
2022-11-14T22:19:34.062Z,8.60
2022-11-14T22:22:23.925Z,8.88
2022-11-14T22:25:11.165Z,7.07
2022-11-14T22:27:58.389Z,6.15
2022-11-14T22:30:45.650Z,5.78
2022-11-14T22:33:41.533Z,6.10
2022-11-14T22:36:33.644Z,6.93
2022-11-14T22:39:23.040Z,10.73
2022-11-14T22:42:10.786Z,11.55
2022-11-14T22:44:58.048Z,6.97
2022-11-14T22:47:45.144Z,11.82
2022-11-14T22:50:32.407Z,10.25
2022-11-14T22:53:24.518Z,6.97
2022-11-14T22:56:12.095Z,7.60
2022-11-14T22:59:07.454Z,9.25
2022-11-14T23:01:55.588Z,9.85
2022-11-14T23:04:42.779Z,12.88
2022-11-14T23:07:35.259Z,11.85
2022-11-14T23:10:22.433Z,8.43
2022-11-14T23:13:18.276Z,14.10
2022-11-14T23:16:07.802Z,16.70
2022-11-14T23:18:58.154Z,14.63
2022-11-14T23:21:45.213Z,18.92
2022-11-14T23:24:32.481Z,13.52
2022-11-14T23:27:19.600Z,13.43
2022-11-14T23:30:07.307Z,15.05
2022-11-14T23:32:55.672Z,17.73
2022-11-14T23:35:44.975Z,15.10
2022-11-14T23:38:32.053Z,17.98
2022-11-14T23:41:25.484Z,33.63
2022-11-14T23:44:12.729Z,45.20
2022-11-14T23:46:59.857Z,44.35
2022-11-14T23:49:49.414Z,71.88
2022-11-14T23:52:36.512Z,27.17
2022-11-14T23:55:23.565Z,54.70
2022-11-14T23:58:10.763Z,41.20
